Seaview, United Kingdom
Current Conditions -  °F | °C
As of 2:20 PM on Thursday 29 Jan 2015 (Local Time) from EGHI Reporting Station
Scattered Clouds Scattered Clouds  
Wind Chill: 30°   Ceiling: Unl
Heat Index: 37°   Visibility: 6mi
Dew Point: 34°   Wind: 12mph
Humidity: 87%   Direction: 270°W
Pressure: 28.94"   Gusts: NA
Location:  50.72°N, 1.11°W
Report Text: EGHI 291420Z 27010KT 250V310 9999 FEW012 SCT025 03/01 Q0980
Loading
Personal Weather Stations






























Interactive Weather Map New forecast layout! Learn more

10-Day Weather Forecast

Advertisements
Track Severe Weather on mobile